createdAt,value
2022-11-07T00:01:41.988Z,5.90
2022-11-07T00:04:09.068Z,5.90
2022-11-07T00:06:37.763Z,5.90
2022-11-07T00:09:05.432Z,6.00
2022-11-07T00:11:32.667Z,6.00
2022-11-07T00:13:59.886Z,6.00
2022-11-07T00:16:28.947Z,6.00
2022-11-07T00:18:56.201Z,6.00
2022-11-07T00:21:23.704Z,6.00
2022-11-07T00:23:51.086Z,6.10
2022-11-07T00:26:18.312Z,6.10
2022-11-07T00:28:45.872Z,6.10
2022-11-07T00:31:14.735Z,6.10
2022-11-07T00:33:43.065Z,6.10
2022-11-07T00:36:16.454Z,6.10
2022-11-07T00:38:44.645Z,6.10
2022-11-07T00:41:11.955Z,6.10
2022-11-07T00:43:39.094Z,6.10
2022-11-07T00:46:07.252Z,6.00
2022-11-07T00:48:35.043Z,6.00
2022-11-07T00:51:13.454Z,5.90
2022-11-07T00:53:41.208Z,5.90
2022-11-07T00:56:11.369Z,5.80
2022-11-07T00:58:39.012Z,5.80
2022-11-07T01:01:16.152Z,5.80
2022-11-07T01:04:01.668Z,5.80
2022-11-07T01:06:30.926Z,5.80
2022-11-07T01:08:58.276Z,5.70
2022-11-07T01:11:27.113Z,5.70
2022-11-07T01:13:59.409Z,5.70
2022-11-07T01:16:27.829Z,5.70
2022-11-07T01:18:55.248Z,5.70
2022-11-07T01:21:22.714Z,5.70
2022-11-07T01:23:50.133Z,5.70
2022-11-07T01:26:17.433Z,5.70
2022-11-07T01:28:44.928Z,5.70
2022-11-07T01:31:14.234Z,5.70
2022-11-07T01:33:42.112Z,5.70
2022-11-07T01:36:12.430Z,5.70
2022-11-07T01:38:42.809Z,5.70
2022-11-07T01:41:22.192Z,5.70
2022-11-07T01:43:58.919Z,5.70
2022-11-07T01:46:39.017Z,5.80
2022-11-07T01:49:14.294Z,5.80
2022-11-07T01:51:49.809Z,5.80
2022-11-07T01:54:23.396Z,5.80
2022-11-07T01:56:52.889Z,5.80
2022-11-07T01:59:26.162Z,5.80
2022-11-07T02:01:54.449Z,5.80
2022-11-07T02:04:25.813Z,5.80
2022-11-07T02:07:21.047Z,5.80
2022-11-07T02:09:52.216Z,5.80
2022-11-07T02:12:22.784Z,5.80
2022-11-07T02:14:51.048Z,5.80
2022-11-07T02:17:19.507Z,5.80
2022-11-07T02:19:52.494Z,5.80
2022-11-07T02:22:25.790Z,5.80
2022-11-07T02:24:57.081Z,5.90
2022-11-07T02:27:27.281Z,5.90
2022-11-07T02:30:08.499Z,5.90
2022-11-07T02:32:35.874Z,5.90
2022-11-07T02:35:06.430Z,5.90
2022-11-07T02:37:37.732Z,5.90
2022-11-07T02:40:09.759Z,5.80
2022-11-07T02:42:45.456Z,5.80
2022-11-07T02:45:16.574Z,5.80
2022-11-07T02:47:43.893Z,5.80
2022-11-07T02:50:14.736Z,5.80
2022-11-07T02:52:42.531Z,5.80
2022-11-07T02:55:11.302Z,5.80
2022-11-07T02:57:38.465Z,5.80
2022-11-07T03:00:07.873Z,5.80
2022-11-07T03:02:35.397Z,5.80
2022-11-07T03:05:02.613Z,5.80
2022-11-07T03:07:29.813Z,5.80
2022-11-07T03:09:56.937Z,5.80
2022-11-07T03:12:24.122Z,5.80
2022-11-07T03:14:51.376Z,5.80
2022-11-07T03:17:18.557Z,5.80
2022-11-07T03:19:45.798Z,5.80
2022-11-07T03:22:13.017Z,5.70
2022-11-07T03:24:40.218Z,5.80
2022-11-07T03:27:07.415Z,5.70
2022-11-07T03:29:34.537Z,5.70
2022-11-07T03:32:01.737Z,5.70
2022-11-07T03:34:28.885Z,5.70
2022-11-07T03:36:56.014Z,5.70
2022-11-07T03:39:25.933Z,5.70
2022-11-07T03:41:53.454Z,5.60
2022-11-07T03:44:20.635Z,5.60
2022-11-07T03:46:47.879Z,5.60
2022-11-07T03:49:15.131Z,5.60
2022-11-07T03:51:42.274Z,5.60
2022-11-07T03:54:09.562Z,5.60
2022-11-07T03:56:36.697Z,5.60
2022-11-07T03:59:03.937Z,5.60
2022-11-07T04:01:31.332Z,5.60
2022-11-07T04:03:58.588Z,5.50
2022-11-07T04:06:25.813Z,5.50
2022-11-07T04:08:53.051Z,5.50
2022-11-07T04:11:45.250Z,5.50
2022-11-07T04:14:31.228Z,5.50
2022-11-07T04:17:16.921Z,5.50
2022-11-07T04:19:44.066Z,5.50
2022-11-07T04:22:11.175Z,5.60
2022-11-07T04:24:41.565Z,5.60
2022-11-07T04:27:32.321Z,5.50
2022-11-07T04:29:59.611Z,5.50
2022-11-07T04:32:26.854Z,5.50
2022-11-07T04:34:54.072Z,5.50
2022-11-07T04:37:21.243Z,5.50
2022-11-07T04:39:48.577Z,5.50
2022-11-07T04:42:15.733Z,5.50
2022-11-07T04:44:43.033Z,5.40
2022-11-07T04:47:10.104Z,5.40
2022-11-07T04:49:37.328Z,5.40
2022-11-07T04:52:04.564Z,5.40
2022-11-07T04:54:31.677Z,5.40
2022-11-07T04:56:58.870Z,5.40
2022-11-07T04:59:26.055Z,5.40
2022-11-07T05:01:53.276Z,5.40
2022-11-07T05:04:20.473Z,5.50
2022-11-07T05:06:47.630Z,5.40
2022-11-07T05:09:18.564Z,5.40
2022-11-07T05:11:48.708Z,5.40
2022-11-07T05:14:15.864Z,5.40
2022-11-07T05:16:43.867Z,5.40
2022-11-07T05:19:17.243Z,5.40
2022-11-07T05:21:45.498Z,5.40
2022-11-07T05:24:13.649Z,5.40
2022-11-07T05:26:40.908Z,5.40
2022-11-07T05:29:10.671Z,5.40
2022-11-07T05:31:37.770Z,5.40
2022-11-07T05:34:04.988Z,5.50
2022-11-07T05:36:32.228Z,5.50
2022-11-07T05:38:59.400Z,5.50
2022-11-07T05:41:26.657Z,5.50
2022-11-07T05:43:53.915Z,5.50
2022-11-07T05:46:21.654Z,5.50
2022-11-07T05:48:48.918Z,5.50
2022-11-07T05:51:16.232Z,5.50
2022-11-07T05:53:43.423Z,5.50
2022-11-07T05:56:10.514Z,5.50
2022-11-07T05:58:37.747Z,5.50
2022-11-07T06:01:06.651Z,5.50
2022-11-07T06:03:34.055Z,5.50
2022-11-07T06:06:01.368Z,5.50
2022-11-07T06:08:28.649Z,5.50
2022-11-07T06:10:55.890Z,5.50
2022-11-07T06:13:23.173Z,5.50
2022-11-07T06:15:50.337Z,5.50
2022-11-07T06:18:20.177Z,5.50
2022-11-07T06:20:47.933Z,5.50
2022-11-07T06:23:15.607Z,5.50
2022-11-07T06:25:43.516Z,5.50
2022-11-07T06:28:12.473Z,5.50
2022-11-07T06:30:40.028Z,5.50
2022-11-07T06:33:10.348Z,5.60
2022-11-07T06:35:37.629Z,5.50
2022-11-07T06:38:06.716Z,5.50
2022-11-07T06:40:34.083Z,5.60
2022-11-07T06:43:19.360Z,5.50
2022-11-07T06:45:47.726Z,5.60
2022-11-07T06:48:15.233Z,5.60
2022-11-07T06:50:42.514Z,5.60
2022-11-07T06:53:12.673Z,5.60
2022-11-07T06:55:40.889Z,5.60
2022-11-07T06:58:08.254Z,5.60
2022-11-07T07:00:36.847Z,5.70
2022-11-07T07:03:05.019Z,5.70
2022-11-07T07:05:33.813Z,5.70
2022-11-07T07:08:01.566Z,5.70
2022-11-07T07:10:28.837Z,5.80
2022-11-07T07:12:56.927Z,5.80
2022-11-07T07:15:24.269Z,5.80
2022-11-07T07:17:51.518Z,5.90
2022-11-07T07:20:18.729Z,5.90
2022-11-07T07:22:49.083Z,5.90
2022-11-07T07:25:18.889Z,6.00
2022-11-07T07:27:46.036Z,6.00
2022-11-07T07:30:13.838Z,6.00
2022-11-07T07:32:41.320Z,6.10
2022-11-07T07:35:09.559Z,6.10
2022-11-07T07:37:36.903Z,6.10
2022-11-07T07:40:04.326Z,6.10
2022-11-07T07:42:31.541Z,6.10
2022-11-07T07:44:58.825Z,6.10
2022-11-07T07:47:26.038Z,6.10
2022-11-07T07:49:53.278Z,6.20
2022-11-07T07:52:21.118Z,6.20
2022-11-07T07:54:48.739Z,6.20
2022-11-07T07:57:15.998Z,6.20
2022-11-07T07:59:43.403Z,6.20
2022-11-07T08:02:12.318Z,6.20
2022-11-07T08:04:41.419Z,6.20
2022-11-07T08:07:08.728Z,6.30
2022-11-07T08:09:38.799Z,6.30
2022-11-07T08:12:09.484Z,6.40
2022-11-07T08:14:36.919Z,6.40
2022-11-07T08:17:04.199Z,6.50
2022-11-07T08:19:31.679Z,6.50
2022-11-07T08:21:59.010Z,6.50
2022-11-07T08:24:26.294Z,6.50
2022-11-07T08:26:53.544Z,6.50
2022-11-07T08:29:20.744Z,6.50
2022-11-07T08:31:50.867Z,6.40
2022-11-07T08:34:18.845Z,6.40
2022-11-07T08:36:46.005Z,6.40
2022-11-07T08:39:13.195Z,6.40
2022-11-07T08:41:40.528Z,6.40
2022-11-07T08:44:09.878Z,6.50
2022-11-07T08:46:38.246Z,6.40
2022-11-07T08:49:05.392Z,6.40
2022-11-07T08:51:33.258Z,6.30
2022-11-07T08:54:00.509Z,6.30
2022-11-07T08:56:27.745Z,6.40
2022-11-07T08:58:55.057Z,6.40
2022-11-07T09:01:22.300Z,6.40
2022-11-07T09:03:56.835Z,6.50
2022-11-07T09:06:25.480Z,6.40
2022-11-07T09:08:52.832Z,6.40
2022-11-07T09:11:20.223Z,6.40
2022-11-07T09:13:47.881Z,6.40
2022-11-07T09:16:18.269Z,6.40
2022-11-07T09:18:47.279Z,6.40
2022-11-07T09:21:20.687Z,6.30
2022-11-07T09:23:50.004Z,6.30
2022-11-07T09:26:17.479Z,6.40
2022-11-07T09:28:50.919Z,6.30
2022-11-07T09:31:19.520Z,6.30
2022-11-07T09:33:46.630Z,6.30
2022-11-07T09:36:13.885Z,6.30
2022-11-07T09:38:41.118Z,6.30
2022-11-07T09:41:17.132Z,6.40
2022-11-07T09:43:49.700Z,6.40
2022-11-07T09:46:33.199Z,6.50
2022-11-07T09:49:18.871Z,6.50
2022-11-07T09:52:05.418Z,6.50
2022-11-07T09:54:38.603Z,6.50
2022-11-07T09:57:08.840Z,6.50
2022-11-07T09:59:55.401Z,6.50
2022-11-07T10:02:25.231Z,6.60
2022-11-07T10:05:01.424Z,6.60
2022-11-07T10:07:44.199Z,6.60
2022-11-07T10:10:23.569Z,6.60
2022-11-07T10:13:02.758Z,6.60
2022-11-07T10:15:50.582Z,6.50
2022-11-07T10:18:53.099Z,6.50
2022-11-07T10:21:40.351Z,6.50
2022-11-07T10:24:47.662Z,6.50
2022-11-07T10:27:14.908Z,6.60
2022-11-07T10:29:48.915Z,6.70
2022-11-07T10:32:19.595Z,6.70
2022-11-07T10:34:55.655Z,6.80
2022-11-07T10:37:30.420Z,6.80
2022-11-07T10:39:58.270Z,6.70
2022-11-07T10:42:32.419Z,6.60
2022-11-07T10:45:00.423Z,6.60
2022-11-07T10:47:28.964Z,6.70
2022-11-07T10:50:02.709Z,6.80
2022-11-07T10:52:34.681Z,7.00
2022-11-07T10:55:27.473Z,7.00
2022-11-07T10:58:09.078Z,6.90
2022-11-07T11:00:43.608Z,6.80
2022-11-07T11:03:44.770Z,6.70
2022-11-07T11:06:28.963Z,6.60
2022-11-07T11:08:56.464Z,6.50
2022-11-07T11:11:36.319Z,6.50
2022-11-07T11:14:13.973Z,6.50
2022-11-07T11:16:47.086Z,6.40
2022-11-07T11:19:42.363Z,6.40
2022-11-07T11:22:17.930Z,6.30
2022-11-07T11:24:45.471Z,6.30
2022-11-07T11:27:15.289Z,6.20
2022-11-07T11:29:49.004Z,6.20
2022-11-07T11:32:29.407Z,6.20
2022-11-07T11:35:09.039Z,6.20
2022-11-07T11:37:42.038Z,6.20
2022-11-07T11:40:15.536Z,6.10
2022-11-07T11:42:59.399Z,6.10
2022-11-07T11:46:01.420Z,6.20
2022-11-07T11:48:54.131Z,6.20
2022-11-07T11:51:37.289Z,6.30
2022-11-07T11:54:09.483Z,6.20
2022-11-07T11:56:42.381Z,6.20
2022-11-07T11:59:38.275Z,6.10
2022-11-07T12:02:39.133Z,6.10
2022-11-07T12:05:22.047Z,6.10
2022-11-07T12:08:05.050Z,6.10
2022-11-07T12:11:05.409Z,6.00
2022-11-07T12:13:52.270Z,6.00
2022-11-07T12:16:42.805Z,5.90
2022-11-07T12:19:30.523Z,5.90
2022-11-07T12:22:30.263Z,5.90
2022-11-07T12:25:08.461Z,5.90
2022-11-07T12:27:41.355Z,5.90
2022-11-07T12:30:37.747Z,5.90
2022-11-07T12:33:04.964Z,5.90
2022-11-07T12:35:48.790Z,5.90
2022-11-07T12:38:42.280Z,5.90
2022-11-07T12:41:46.974Z,5.90
2022-11-07T12:44:25.718Z,5.90
2022-11-07T12:46:57.123Z,5.90
2022-11-07T12:49:43.255Z,5.90
2022-11-07T12:52:23.444Z,5.90
2022-11-07T12:55:06.533Z,5.90
2022-11-07T12:57:37.899Z,5.90
2022-11-07T13:00:07.408Z,5.90
2022-11-07T13:03:12.404Z,5.90
2022-11-07T13:05:45.330Z,5.90
2022-11-07T13:08:18.481Z,6.00
2022-11-07T13:11:06.538Z,6.00
2022-11-07T13:13:54.066Z,6.00
2022-11-07T13:16:34.417Z,6.00
2022-11-07T13:19:32.649Z,6.10
2022-11-07T13:22:14.030Z,6.10
2022-11-07T13:24:53.635Z,6.10
2022-11-07T13:27:34.324Z,6.10
2022-11-07T13:30:20.166Z,6.10
2022-11-07T13:32:51.944Z,6.10
2022-11-07T13:35:28.071Z,6.10
2022-11-07T13:38:03.237Z,6.20
2022-11-07T13:40:37.628Z,6.20
2022-11-07T13:43:13.936Z,6.20
2022-11-07T13:45:55.897Z,6.10
2022-11-07T13:48:57.266Z,6.10
2022-11-07T13:51:35.167Z,6.10
2022-11-07T13:54:27.905Z,6.10
2022-11-07T13:57:05.240Z,6.10
2022-11-07T13:59:39.424Z,6.10
2022-11-07T14:02:07.261Z,6.10
2022-11-07T14:04:40.557Z,6.10
2022-11-07T14:07:17.618Z,6.10
2022-11-07T14:09:45.539Z,6.10
2022-11-07T14:12:20.503Z,6.00
2022-11-07T14:14:51.132Z,6.00
2022-11-07T14:17:20.057Z,6.00
2022-11-07T14:19:47.225Z,6.00
2022-11-07T14:22:26.278Z,5.90
2022-11-07T14:24:58.603Z,5.80
2022-11-07T14:27:25.842Z,5.80
2022-11-07T14:29:54.471Z,5.80
2022-11-07T14:32:22.682Z,5.80
2022-11-07T14:34:51.973Z,5.70
2022-11-07T14:37:23.363Z,5.80
2022-11-07T14:39:51.466Z,5.80
2022-11-07T14:42:25.045Z,5.70
2022-11-07T14:44:56.067Z,5.70
2022-11-07T14:47:34.197Z,5.70
2022-11-07T14:50:02.911Z,5.80
2022-11-07T14:52:42.490Z,5.70
2022-11-07T14:55:19.101Z,5.80
2022-11-07T14:57:46.559Z,5.70
2022-11-07T15:00:20.612Z,5.70
2022-11-07T15:02:49.284Z,5.70
2022-11-07T15:05:43.994Z,5.70
2022-11-07T15:08:31.086Z,5.70
2022-11-07T15:11:04.202Z,5.70
2022-11-07T15:13:35.247Z,5.70
2022-11-07T15:16:07.119Z,5.70
2022-11-07T15:18:44.166Z,5.70
2022-11-07T15:21:26.474Z,5.70
2022-11-07T15:23:53.600Z,5.70
2022-11-07T15:26:31.490Z,5.60
2022-11-07T15:29:14.880Z,5.70
2022-11-07T15:31:48.662Z,5.70
2022-11-07T15:34:29.088Z,5.60
2022-11-07T15:37:17.705Z,5.70
2022-11-07T15:39:45.138Z,5.70
2022-11-07T15:42:12.472Z,5.60
2022-11-07T15:44:39.802Z,5.70
2022-11-07T15:47:07.377Z,5.70
2022-11-07T15:49:35.378Z,5.70
2022-11-07T15:52:02.523Z,5.70
2022-11-07T15:54:29.843Z,5.70
2022-11-07T15:57:01.596Z,5.70
2022-11-07T15:59:33.117Z,5.70
2022-11-07T16:02:01.458Z,5.70
2022-11-07T16:04:29.139Z,5.70
2022-11-07T16:06:56.552Z,5.70
2022-11-07T16:09:24.202Z,5.70
2022-11-07T16:11:51.281Z,5.70
2022-11-07T16:17:12.580Z,5.70
2022-11-07T16:19:40.363Z,5.70
2022-11-07T16:22:10.183Z,5.70
2022-11-07T16:24:37.434Z,5.70
2022-11-07T16:27:05.165Z,5.80
2022-11-07T16:29:32.699Z,5.80
2022-11-07T16:31:59.924Z,5.80
2022-11-07T16:34:27.364Z,5.80
2022-11-07T16:36:55.030Z,5.80
2022-11-07T16:39:23.246Z,5.80
2022-11-07T16:41:53.129Z,5.80
2022-11-07T16:44:26.008Z,5.80
2022-11-07T16:46:56.267Z,5.80
2022-11-07T16:49:32.682Z,5.80
2022-11-07T16:52:00.299Z,5.80
2022-11-07T16:54:27.541Z,5.80
2022-11-07T16:56:54.818Z,5.80
2022-11-07T16:59:24.048Z,5.70
2022-11-07T17:01:52.356Z,5.70
2022-11-07T17:04:19.589Z,5.70
2022-11-07T17:06:47.810Z,5.70
2022-11-07T17:09:17.465Z,5.70
2022-11-07T17:11:45.301Z,5.70
2022-11-07T17:14:13.041Z,5.70
2022-11-07T17:16:44.037Z,5.70
2022-11-07T17:19:13.857Z,5.70
2022-11-07T17:21:46.627Z,5.70
2022-11-07T17:24:14.193Z,5.80
2022-11-07T17:26:41.389Z,5.80
2022-11-07T17:29:13.332Z,5.70
2022-11-07T17:31:42.976Z,5.80
2022-11-07T17:34:10.845Z,5.70
2022-11-07T17:36:46.222Z,5.80
2022-11-07T17:39:22.681Z,5.80
2022-11-07T17:41:51.095Z,5.80
2022-11-07T17:44:19.344Z,5.80
2022-11-07T17:46:48.580Z,5.80
2022-11-07T17:49:22.143Z,5.80
2022-11-07T17:51:49.415Z,5.80
2022-11-07T17:54:16.662Z,5.80
2022-11-07T17:56:44.045Z,5.80
2022-11-07T17:59:14.892Z,5.80
2022-11-07T18:01:43.307Z,5.80
2022-11-07T18:04:12.692Z,5.80
2022-11-07T18:06:41.776Z,5.80
2022-11-07T18:09:14.154Z,5.80
2022-11-07T18:11:41.514Z,5.80
2022-11-07T18:14:11.905Z,5.80
2022-11-07T18:16:42.331Z,5.80
2022-11-07T18:19:10.901Z,5.80
2022-11-07T18:21:39.244Z,5.90
2022-11-07T18:24:06.956Z,5.90
2022-11-07T18:26:35.235Z,5.90
2022-11-07T18:29:05.468Z,5.90
2022-11-07T18:31:32.907Z,5.90
2022-11-07T18:34:02.486Z,6.00
2022-11-07T18:36:30.916Z,6.00
2022-11-07T18:39:17.829Z,6.00
2022-11-07T18:41:45.827Z,6.00
2022-11-07T18:44:13.557Z,6.10
2022-11-07T18:46:41.416Z,6.10
2022-11-07T18:49:08.979Z,6.10
2022-11-07T18:51:36.157Z,6.10
2022-11-07T18:54:04.995Z,6.20
2022-11-07T18:56:32.379Z,6.20
2022-11-07T18:59:00.120Z,6.20
2022-11-07T19:01:31.111Z,6.20
2022-11-07T19:04:00.567Z,6.20
2022-11-07T19:06:29.808Z,6.30
2022-11-07T19:08:57.657Z,6.30
2022-11-07T19:11:29.666Z,6.40
2022-11-07T19:14:01.872Z,6.40
2022-11-07T19:16:29.925Z,6.40
2022-11-07T19:18:59.718Z,6.40
2022-11-07T19:21:27.247Z,6.40
2022-11-07T19:23:54.616Z,6.40
2022-11-07T19:26:21.933Z,6.50
2022-11-07T19:28:49.463Z,6.50
2022-11-07T19:31:17.455Z,6.50
2022-11-07T19:33:45.228Z,6.50
2022-11-07T19:36:18.262Z,6.60
2022-11-07T19:38:45.870Z,6.60
2022-11-07T19:41:13.852Z,6.60
2022-11-07T19:43:42.785Z,6.60
2022-11-07T19:46:16.073Z,6.60
2022-11-07T19:48:44.229Z,6.60
2022-11-07T19:51:22.171Z,6.60
2022-11-07T19:53:58.514Z,6.60
2022-11-07T19:56:28.151Z,6.60
2022-11-07T19:58:55.703Z,6.70
2022-11-07T20:01:26.074Z,6.70
2022-11-07T20:03:54.318Z,6.70
2022-11-07T20:06:25.559Z,6.80
2022-11-07T20:08:53.152Z,6.80
2022-11-07T20:11:22.434Z,6.80
2022-11-07T20:13:49.639Z,6.80
2022-11-07T20:16:17.335Z,6.90
2022-11-07T20:18:44.559Z,6.90
2022-11-07T20:21:21.924Z,6.90
2022-11-07T20:23:50.098Z,6.90
2022-11-07T20:26:20.828Z,7.00
2022-11-07T20:28:49.316Z,7.00
2022-11-07T20:31:20.182Z,7.00
2022-11-07T20:33:47.733Z,7.00
2022-11-07T20:36:16.039Z,7.00
2022-11-07T20:38:44.275Z,7.00
2022-11-07T20:41:13.771Z,7.00
2022-11-07T20:43:43.971Z,7.00
2022-11-07T20:46:15.243Z,7.10
2022-11-07T20:48:43.158Z,7.10
2022-11-07T20:51:12.795Z,7.10
2022-11-07T20:53:44.203Z,7.10
2022-11-07T20:56:14.469Z,7.10
2022-11-07T20:58:43.295Z,7.20
2022-11-07T21:01:15.108Z,7.20
2022-11-07T21:03:42.391Z,7.20
2022-11-07T21:06:11.715Z,7.20
2022-11-07T21:08:40.356Z,7.20
2022-11-07T21:11:08.813Z,7.20
2022-11-07T21:13:36.239Z,7.20
2022-11-07T21:16:03.576Z,7.20
2022-11-07T21:18:30.921Z,7.20
2022-11-07T21:21:16.561Z,7.30
2022-11-07T21:23:44.554Z,7.30
2022-11-07T21:26:18.335Z,7.40
2022-11-07T21:28:45.839Z,7.40
2022-11-07T21:31:16.244Z,7.40
2022-11-07T21:33:43.534Z,7.40
2022-11-07T21:36:12.863Z,7.40
2022-11-07T21:38:40.214Z,7.40
2022-11-07T21:41:08.916Z,7.40
2022-11-07T21:43:36.550Z,7.40
2022-11-07T21:46:19.054Z,7.40
2022-11-07T21:48:47.073Z,7.50
2022-11-07T21:51:17.117Z,7.40
2022-11-07T21:53:45.348Z,7.50
2022-11-07T21:56:15.652Z,7.50
2022-11-07T21:58:43.091Z,7.50
2022-11-07T22:01:10.724Z,7.50
2022-11-07T22:04:04.713Z,7.50
2022-11-07T22:06:25.133Z,7.50
2022-11-07T22:08:52.738Z,7.50
2022-11-07T22:11:20.251Z,7.50
2022-11-07T22:13:47.919Z,7.50
2022-11-07T22:16:18.280Z,7.50
2022-11-07T22:18:46.779Z,7.50
2022-11-07T22:21:23.012Z,7.50
2022-11-07T22:23:51.282Z,7.60
2022-11-07T22:26:23.821Z,7.60
2022-11-07T22:28:51.408Z,7.60
2022-11-07T22:31:21.103Z,7.60
2022-11-07T22:33:48.682Z,7.60
2022-11-07T22:36:16.159Z,7.60
2022-11-07T22:38:43.823Z,7.60
2022-11-07T22:41:16.877Z,7.60
2022-11-07T22:43:44.186Z,7.70
2022-11-07T22:46:19.461Z,7.70
2022-11-07T22:48:47.793Z,7.70
2022-11-07T22:51:20.553Z,7.80
2022-11-07T22:53:47.948Z,7.80
2022-11-07T22:56:19.765Z,7.80
2022-11-07T22:58:47.947Z,7.80
2022-11-07T23:01:26.347Z,7.80
2022-11-07T23:03:54.577Z,7.80
2022-11-07T23:06:22.205Z,7.90
2022-11-07T23:08:49.909Z,7.90
2022-11-07T23:11:45.167Z,7.90
2022-11-07T23:14:13.966Z,7.90
2022-11-07T23:16:44.832Z,8.00
2022-11-07T23:19:14.857Z,8.00
2022-11-07T23:21:42.311Z,8.00
2022-11-07T23:24:10.296Z,8.00
2022-11-07T23:26:37.615Z,8.00
2022-11-07T23:29:11.176Z,8.10
2022-11-07T23:31:43.240Z,8.10
2022-11-07T23:34:11.026Z,8.10
2022-11-07T23:36:40.938Z,8.10
2022-11-07T23:39:08.961Z,8.10
2022-11-07T23:41:36.166Z,8.10
2022-11-07T23:44:03.824Z,8.10
2022-11-07T23:46:49.922Z,8.10
2022-11-07T23:49:35.540Z,8.10
2022-11-07T23:52:03.141Z,8.20
2022-11-07T23:54:48.694Z,8.20
2022-11-07T23:57:15.926Z,8.20
